Time;durP1;ratioP1;P1;durP2;ratioP2;P2;SDS_P1;SDS_P2;PMS_P1;PMS_P2;Temp;Humidity;BMP_temperature;BMP_pressure;BME280_temperature;BME280_humidity;BME280_pressure;Samples;Min_cycle;Max_cycle;Signal;HPM_P1;HPM_P2
2023/07/01 00:01:59;;;;;;;;;8.33;7.67;;;;;18.32;96.50;97708.59;4938827;28;102197;-70
2023/07/01 00:04:33;;;;;;;;;6.00;6.00;;;;;18.26;98.76;97712.41;4937238;28;104206;-70
2023/07/01 00:07:16;;;;;;;;;10.00;9.00;;;;;18.08;100.00;97696.50;4936445;28;101894;-71
2023/07/01 00:10:03;;;;;;;;;7.00;7.00;;;;;18.03;100.00;97693.75;4931258;28;102200;-71
2023/07/01 00:12:49;;;;;;;;;7.33;7.00;;;;;18.09;100.00;97717.31;4933486;28;102471;-71
2023/07/01 00:15:25;;;;;;;;;5.00;5.00;;;;;18.06;100.00;97712.34;4935960;28;108039;-71
2023/07/01 00:17:54;;;;;;;;;5.00;5.00;;;;;18.08;100.00;97716.47;4937475;28;102267;-71
2023/07/01 00:20:21;;;;;;;;;4.00;4.00;;;;;18.12;100.00;97714.00;4936995;28;102588;-71
2023/07/01 00:22:49;;;;;;;;;4.00;4.00;;;;;18.09;100.00;97700.88;4931279;28;102387;-71
2023/07/01 00:25:16;;;;;;;;;3.67;3.67;;;;;18.12;100.00;97703.88;4936130;28;104172;-71
2023/07/01 00:27:43;;;;;;;;;11.00;11.00;;;;;18.01;100.00;97701.41;4937939;28;102086;-71
2023/07/01 00:30:10;;;;;;;;;8.00;8.00;;;;;17.95;100.00;97694.28;4935649;28;103290;-72
2023/07/01 00:32:37;;;;;;;;;6.00;5.00;;;;;17.94;100.00;97693.47;4934367;28;102342;-71
2023/07/01 00:35:05;;;;;;;;;5.67;5.67;;;;;17.94;100.00;97703.56;4935552;28;104021;-71
2023/07/01 00:37:32;;;;;;;;;4.00;3.33;;;;;17.97;100.00;97703.03;4935672;28;102306;-71
2023/07/01 00:39:59;;;;;;;;;6.67;5.00;;;;;17.99;100.00;97703.59;4933555;28;101871;-71
2023/07/01 00:42:26;;;;;;;;;4.00;3.00;;;;;18.00;100.00;97705.25;4939237;28;102157;-72
2023/07/01 00:44:53;;;;;;;;;6.00;6.00;;;;;18.02;100.00;97711.25;4936108;28;108425;-71
2023/07/01 00:47:20;;;;;;;;;4.33;4.33;;;;;17.99;100.00;97696.22;4932550;28;102107;-71
2023/07/01 00:49:47;;;;;;;;;5.00;5.00;;;;;18.04;100.00;97696.22;4935398;28;102106;-72
2023/07/01 00:52:14;;;;;;;;;6.00;5.00;;;;;18.07;100.00;97706.63;4936653;28;102375;-71
2023/07/01 00:54:42;;;;;;;;;5.00;5.00;;;;;18.04;100.00;97692.66;4934460;28;104255;-71
2023/07/01 00:57:09;;;;;;;;;2.33;2.33;;;;;18.06;100.00;97685.81;4934908;28;102090;-72
2023/07/01 00:59:36;;;;;;;;;4.00;4.00;;;;;18.08;100.00;97693.75;4936494;28;102261;-72
2023/07/01 01:02:09;;;;;;;;;5.00;5.00;;;;;18.08;100.00;97688.28;4934477;28;102404;-70
2023/07/01 01:05:11;;;;;;;;;7.00;7.00;;;;;17.99;100.00;97678.97;4932000;28;104067;-71
2023/07/01 01:08:10;;;;;;;;;5.00;5.00;;;;;17.98;100.00;97672.69;4932798;28;102273;-71
2023/07/01 01:10:59;;;;;;;;;12.00;12.00;;;;;17.93;100.00;97675.41;4933700;28;102118;-71
2023/07/01 01:13:59;;;;;;;;;9.67;8.67;;;;;17.92;100.00;97672.97;4932485;28;102604;-71
2023/07/01 01:16:54;;;;;;;;;5.67;5.00;;;;;17.94;100.00;97677.06;4936062;28;108760;-71
2023/07/01 01:19:47;;;;;;;;;5.00;4.33;;;;;17.97;100.00;97681.16;4935585;28;102123;-71
2023/07/01 01:22:17;;;;;;;;;6.00;6.00;;;;;17.99;100.00;97679.81;4936871;28;102113;-71
2023/07/01 01:24:50;;;;;;;;;6.33;6.33;;;;;18.00;100.00;97665.03;4937338;28;102335;-70
2023/07/01 01:27:24;;;;;;;;;4.33;4.00;;;;;18.01;100.00;97682.28;4934672;28;104131;-71
2023/07/01 01:29:52;;;;;;;;;5.00;5.00;;;;;18.02;100.00;97676.50;4936380;28;104418;-71
2023/07/01 01:32:19;;;;;;;;;4.33;4.33;;;;;18.04;100.00;97690.75;4934531;28;102132;-71
2023/07/01 01:34:46;;;;;;;;;5.00;5.00;;;;;18.05;100.00;97681.47;4934342;28;101999;-71
2023/07/01 01:37:29;;;;;;;;;7.00;6.00;;;;;18.05;100.00;97680.63;4937374;28;104053;-71
2023/07/01 01:40:09;;;;;;;;;5.33;5.33;;;;;18.05;100.00;97677.91;4931610;28;102004;-71
2023/07/01 01:42:40;;;;;;;;;6.00;5.33;;;;;17.90;100.00;97675.13;4932447;28;102268;-72
2023/07/01 01:45:07;;;;;;;;;6.67;6.00;;;;;17.70;100.00;97665.78;4934760;28;102384;-71
2023/07/01 01:47:36;;;;;;;;;6.67;6.67;;;;;17.67;100.00;97671.78;4937421;28;104010;-71
2023/07/01 01:50:09;;;;;;;;;5.00;5.00;;;;;17.62;100.00;97668.22;4938331;28;102161;-71
2023/07/01 01:52:37;;;;;;;;;7.00;7.00;;;;;17.57;100.00;97665.44;4938412;28;103162;-72
2023/07/01 01:55:05;;;;;;;;;9.00;8.00;;;;;17.46;100.00;97669.22;4936881;28;102437;-71
2023/07/01 01:57:32;;;;;;;;;11.67;10.00;;;;;17.35;100.00;97673.81;4937196;28;104036;-71
2023/07/01 01:59:59;;;;;;;;;13.75;13.00;;;;;17.26;100.00;97662.59;4940668;28;102253;-72
2023/07/01 02:02:26;;;;;;;;;10.67;9.67;;;;;17.16;100.00;97664.44;4937516;28;102038;-72
2023/07/01 02:04:53;;;;;;;;;16.00;14.00;;;;;17.09;100.00;97667.44;4935864;28;102888;-71
2023/07/01 02:07:20;;;;;;;;;14.25;14.00;;;;;17.04;100.00;97669.31;4934529;28;103873;-71
2023/07/01 02:09:47;;;;;;;;;13.75;13.00;;;;;16.99;100.00;97666.53;4936699;28;101948;-71
2023/07/01 02:12:14;;;;;;;;;19.00;17.75;;;;;16.83;100.00;97661.00;4938631;28;102152;-71
2023/07/01 02:14:41;;;;;;;;;17.00;17.00;;;;;16.76;100.00;97648.66;4939455;28;102133;-71
2023/07/01 02:17:08;;;;;;;;;14.00;14.00;;;;;16.84;100.00;97650.91;4936997;28;105297;-71
2023/07/01 02:19:35;;;;;;;;;11.00;11.00;;;;;16.98;100.00;97662.16;4935425;28;101951;-71
2023/07/01 02:22:03;;;;;;;;;9.00;8.25;;;;;16.98;100.00;97648.50;4937640;28;101928;-72
2023/07/01 02:24:30;;;;;;;;;7.00;6.33;;;;;17.03;100.00;97654.81;4942316;28;102389;-72
2023/07/01 02:26:57;;;;;;;;;15.75;14.75;;;;;16.86;100.00;97656.91;4939003;28;104262;-72
2023/07/01 02:29:24;;;;;;;;;12.25;12.25;;;;;16.95;100.00;97672.53;4938569;28;101935;-72
2023/07/01 02:31:51;;;;;;;;;10.50;9.50;;;;;16.99;100.00;97670.09;4938649;28;102192;-72
2023/07/01 02:34:25;;;;;;;;;8.00;8.00;;;;;17.00;100.00;97663.56;4939378;28;102181;-72
2023/07/01 02:36:53;;;;;;;;;9.00;8.00;;;;;17.02;100.00;97669.56;4936858;28;104114;-72
2023/07/01 02:39:20;;;;;;;;;6.75;6.50;;;;;17.07;100.00;97676.97;4938931;28;102391;-72
2023/07/01 02:41:47;;;;;;;;;11.00;11.00;;;;;17.05;100.00;97669.06;4938630;28;106797;-72
2023/07/01 02:44:14;;;;;;;;;7.50;7.50;;;;;17.13;100.00;97670.44;4939329;28;102396;-71
2023/07/01 02:46:41;;;;;;;;;11.00;10.00;;;;;16.99;100.00;97641.97;4934241;28;104033;-71
2023/07/01 02:49:08;;;;;;;;;8.00;8.00;;;;;17.08;100.00;97652.13;4938659;28;102097;-72
2023/07/01 02:51:35;;;;;;;;;9.50;9.00;;;;;17.05;100.00;97651.84;4937216;28;102892;-71
2023/07/01 02:54:02;;;;;;;;;7.75;7.75;;;;;17.10;100.00;97655.44;4938381;28;102076;-71
2023/07/01 02:56:29;;;;;;;;;7.00;5.00;;;;;17.10;100.00;97655.44;4937802;28;108496;-71
2023/07/01 02:58:56;;;;;;;;;7.00;6.75;;;;;17.09;100.00;97651.03;4933962;28;102004;-72
2023/07/01 03:01:23;;;;;;;;;5.67;5.00;;;;;17.07;100.00;97644.19;4937396;28;102010;-72
2023/07/01 03:03:51;;;;;;;;;7.00;6.33;;;;;17.14;100.00;97650.25;4939671;28;102246;-72
2023/07/01 03:06:18;;;;;;;;;5.67;5.00;;;;;17.15;100.00;97652.72;4935809;28;103916;-73
2023/07/01 03:08:45;;;;;;;;;2.00;2.00;;;;;17.16;100.00;97653.50;4937572;28;102171;-72
2023/07/01 03:11:12;;;;;;;;;3.00;3.00;;;;;17.19;100.00;97655.72;4937117;28;101942;-72
2023/07/01 03:13:39;;;;;;;;;4.67;4.00;;;;;17.21;100.00;97661.75;4939238;28;102117;-72
2023/07/01 03:16:07;;;;;;;;;2.00;2.00;;;;;17.26;100.00;97661.75;4937640;28;104098;-72
2023/07/01 03:18:35;;;;;;;;;5.33;5.33;;;;;17.28;100.00;97667.78;4939053;28;102143;-71
2023/07/01 03:21:02;;;;;;;;;6.00;6.00;;;;;17.27;100.00;97668.88;4938383;28;101972;-71
2023/07/01 03:23:30;;;;;;;;;5.00;5.00;;;;;17.26;100.00;97668.06;4941221;28;102118;-72
2023/07/01 03:25:58;;;;;;;;;7.00;6.00;;;;;17.16;100.00;97669.91;4934162;28;105974;-72
2023/07/01 03:28:25;;;;;;;;;5.67;5.00;;;;;17.17;100.00;97664.19;4933908;28;102033;-72
2023/07/01 03:30:52;;;;;;;;;6.67;6.67;;;;;17.17;100.00;97655.16;4936855;28;101951;-72
2023/07/01 03:33:20;;;;;;;;;9.00;8.25;;;;;17.13;100.00;97665.81;4939013;28;102197;-72
2023/07/01 03:35:47;;;;;;;;;8.33;8.00;;;;;17.15;100.00;97662.81;4936551;28;103943;-72
2023/07/01 03:38:14;;;;;;;;;7.33;6.33;;;;;17.20;100.00;97665.59;4938041;28;102696;-72
2023/07/01 03:40:41;;;;;;;;;9.00;8.00;;;;;17.23;100.00;97665.03;4935554;28;106219;-72
2023/07/01 03:43:08;;;;;;;;;11.50;11.25;;;;;17.17;100.00;97664.19;4937515;28;102183;-72
2023/07/01 03:45:35;;;;;;;;;11.25;10.00;;;;;17.11;100.00;97653.50;4938642;28;104107;-73
2023/07/01 03:48:02;;;;;;;;;10.00;9.00;;;;;17.22;100.00;97671.59;4935581;28;102301;-72
2023/07/01 03:50:30;;;;;;;;;13.75;12.75;;;;;17.12;100.00;97655.97;4936682;28;102193;-72
2023/07/01 03:52:57;;;;;;;;;17.25;16.25;;;;;17.14;100.00;97662.00;4938646;28;102222;-72
2023/07/01 03:55:25;;;;;;;;;9.00;9.00;;;;;17.17;100.00;97646.97;4936101;28;104086;-73
2023/07/01 03:57:52;;;;;;;;;7.33;7.33;;;;;17.21;100.00;97650.81;4933603;28;102055;-72
2023/07/01 04:00:19;;;;;;;;;7.00;7.00;;;;;17.16;100.00;97628.94;4937681;28;101988;-72
2023/07/01 04:02:48;;;;;;;;;6.33;6.00;;;;;17.24;100.00;97634.72;4938604;28;102969;-72
2023/07/01 04:05:16;;;;;;;;;6.00;5.33;;;;;17.18;100.00;97635.78;4931730;28;104146;-71
2023/07/01 04:07:47;;;;;;;;;13.50;13.50;;;;;17.00;100.00;97632.69;4938404;28;102065;-71
2023/07/01 04:10:15;;;;;;;;;16.00;15.50;;;;;16.91;100.00;97630.47;4935890;28;102219;-71
2023/07/01 04:12:42;;;;;;;;;16.75;16.00;;;;;16.84;100.00;97624.41;4938623;28;102365;-71
2023/07/01 04:15:12;;;;;;;;;10.50;10.50;;;;;16.93;100.00;97627.47;4937298;28;104182;-71
2023/07/01 04:17:44;;;;;;;;;9.75;9.00;;;;;17.01;100.00;97631.59;4937363;28;102081;-71
2023/07/01 04:20:13;;;;;;;;;7.00;7.00;;;;;17.06;100.00;97631.63;4936619;28;106606;-72
2023/07/01 04:22:41;;;;;;;;;10.75;10.50;;;;;17.10;100.00;97630.00;4933693;28;102851;-71
2023/07/01 04:25:09;;;;;;;;;11.50;11.00;;;;;17.06;100.00;97634.38;4938266;28;104063;-72
2023/07/01 04:27:36;;;;;;;;;15.75;15.75;;;;;17.00;100.00;97643.63;4939089;28;102412;-72
2023/07/01 04:30:08;;;;;;;;;15.00;14.50;;;;;16.83;100.00;97611.88;4937379;28;102441;-72
2023/07/01 04:32:35;;;;;;;;;10.00;9.25;;;;;17.09;100.00;97645.56;4937235;28;102421;-72
2023/07/01 04:35:03;;;;;;;;;7.25;7.25;;;;;17.04;100.00;97634.63;4937780;28;108815;-71
2023/07/01 04:37:30;;;;;;;;;10.75;10.75;;;;;17.06;100.00;97631.63;4937342;28;103486;-71
2023/07/01 04:39:57;;;;;;;;;13.50;13.50;;;;;17.07;100.00;97636.00;4937659;28;102432;-71
2023/07/01 04:42:24;;;;;;;;;11.00;11.00;;;;;17.12;100.00;97636.84;4938684;28;102244;-71
2023/07/01 04:44:54;;;;;;;;;11.00;10.50;;;;;17.21;100.00;97639.88;4936331;28;104013;-72
2023/07/01 04:47:24;;;;;;;;;10.25;9.00;;;;;17.20;100.00;97638.25;4936806;28;102346;-71
2023/07/01 04:49:54;;;;;;;;;5.00;5.00;;;;;17.14;100.00;97618.28;4937264;28;101829;-71
2023/07/01 04:52:25;;;;;;;;;8.50;8.50;;;;;17.19;100.00;97634.72;4935043;28;101953;-71
2023/07/01 04:54:52;;;;;;;;;8.67;8.67;;;;;17.26;100.00;97634.44;4935962;28;104203;-71
2023/07/01 04:57:20;;;;;;;;;7.33;7.00;;;;;17.33;100.00;97637.75;4935307;28;102279;-72
2023/07/01 04:59:47;;;;;;;;;6.00;6.00;;;;;17.41;100.00;97637.25;4936930;28;102366;-72
2023/07/01 05:02:14;;;;;;;;;5.00;5.00;;;;;17.45;100.00;97646.53;4937001;28;101913;-72
2023/07/01 05:04:41;;;;;;;;;6.00;6.00;;;;;17.53;100.00;97647.94;4936815;28;104296;-72
2023/07/01 05:07:08;;;;;;;;;6.00;5.00;;;;;17.58;100.00;97651.53;4937366;28;102206;-71
2023/07/01 05:09:35;;;;;;;;;3.67;3.67;;;;;17.63;100.00;97648.81;4938753;28;102455;-72
2023/07/01 05:12:03;;;;;;;;;4.00;4.00;;;;;17.61;100.00;97640.06;4937146;28;102302;-72
2023/07/01 05:14:30;;;;;;;;;3.00;3.00;;;;;17.68;100.00;97651.56;4936952;28;104036;-72
2023/07/01 05:16:57;;;;;;;;;2.00;2.00;;;;;17.69;100.00;97655.94;4935290;28;102177;-72
2023/07/01 05:19:24;;;;;;;;;5.00;5.00;;;;;17.71;100.00;97651.03;4936767;28;102178;-72
2023/07/01 05:21:54;;;;;;;;;2.67;2.67;;;;;17.72;100.00;97647.19;4937762;28;103087;-72
2023/07/01 05:24:21;;;;;;;;;3.00;3.00;;;;;17.73;100.00;97651.59;4936606;28;104176;-72
2023/07/01 05:26:50;;;;;;;;;3.67;3.67;;;;;17.73;100.00;97648.03;4934988;28;103518;-72
2023/07/01 05:29:24;;;;;;;;;8.00;7.00;;;;;17.78;100.00;97659.81;4950210;28;101932;-72
2023/07/01 05:31:52;;;;;;;;;3.00;3.00;;;;;17.80;100.00;97654.88;4935709;28;102398;-72
2023/07/01 05:34:19;;;;;;;;;3.67;3.67;;;;;17.79;100.00;97657.88;4936472;28;103922;-72
2023/07/01 05:36:46;;;;;;;;;5.00;4.67;;;;;17.78;100.00;97659.81;4936240;28;102360;-72
2023/07/01 05:39:13;;;;;;;;;4.00;4.00;;;;;17.83;100.00;97661.72;4936285;28;102513;-72
2023/07/01 05:41:41;;;;;;;;;5.00;5.00;;;;;17.81;100.00;97656.53;4937406;28;102406;-72
2023/07/01 05:44:10;;;;;;;;;4.67;4.67;;;;;17.84;100.00;97657.88;4935496;28;104028;-71
2023/07/01 05:46:39;;;;;;;;;6.00;6.00;;;;;17.87;100.00;97651.06;4936473;28;108870;-72
2023/07/01 05:49:07;;;;;;;;;3.00;3.00;;;;;17.89;100.00;97662.53;4935972;28;102248;-72
2023/07/01 05:51:34;;;;;;;;;4.33;3.33;;;;;17.79;100.00;97647.75;4936961;28;102368;-72
2023/07/01 05:54:01;;;;;;;;;4.67;4.67;;;;;17.87;100.00;97664.75;4935427;28;104118;-72
2023/07/01 05:56:30;;;;;;;;;5.00;5.00;;;;;17.89;100.00;97662.53;4936532;28;103528;-72
2023/07/01 05:58:57;;;;;;;;;5.33;5.33;;;;;17.91;100.00;97671.31;4931693;28;102400;-72
2023/07/01 06:01:24;;;;;;;;;5.67;5.67;;;;;17.89;100.00;97668.00;4937203;28;102011;-72
2023/07/01 06:03:51;;;;;;;;;8.00;7.00;;;;;17.90;100.00;97675.13;4937018;28;104094;-72
2023/07/01 06:06:18;;;;;;;;;5.33;4.33;;;;;17.87;100.00;97664.75;4935102;28;103224;-72
2023/07/01 06:08:46;;;;;;;;;5.00;4.00;;;;;17.90;100.00;97670.47;4938773;28;102241;-72
2023/07/01 06:11:14;;;;;;;;;5.00;4.00;;;;;17.89;100.00;97674.31;4940318;28;102244;-72
2023/07/01 06:13:47;;;;;;;;;4.00;4.00;;;;;17.87;100.00;97683.88;4939251;28;104158;-72
2023/07/01 06:16:15;;;;;;;;;5.00;5.00;;;;;17.86;100.00;97680.31;4937632;28;101827;-72
2023/07/01 06:18:43;;;;;;;;;4.67;4.67;;;;;17.88;100.00;97682.78;4936630;28;104020;-72
2023/07/01 06:21:10;;;;;;;;;7.00;7.00;;;;;17.89;100.00;97689.88;4939262;28;102196;-71
2023/07/01 06:23:37;;;;;;;;;6.00;6.00;;;;;17.88;100.00;97688.25;4937547;28;104136;-72
2023/07/01 06:26:05;;;;;;;;;7.00;7.00;;;;;17.84;100.00;97688.78;4937913;28;101869;-72
2023/07/01 06:28:32;;;;;;;;;6.00;6.00;;;;;17.82;100.00;97691.00;4936574;28;102188;-72
2023/07/01 06:30:59;;;;;;;;;6.67;6.67;;;;;17.83;100.00;97687.13;4939125;28;102186;-72
2023/07/01 06:33:27;;;;;;;;;10.00;9.67;;;;;17.72;100.00;97687.38;4933410;28;104063;-72
2023/07/01 06:35:54;;;;;;;;;5.00;5.00;;;;;17.73;100.00;97681.66;4937467;28;102272;-72
2023/07/01 06:38:21;;;;;;;;;7.00;6.33;;;;;17.70;100.00;97684.91;4938152;28;102313;-72
2023/07/01 06:40:48;;;;;;;;;8.33;8.00;;;;;17.71;100.00;97685.75;4938669;28;104055;-72
2023/07/01 06:43:15;;;;;;;;;7.00;7.00;;;;;17.67;100.00;97681.91;4934001;28;104025;-72
2023/07/01 06:45:43;;;;;;;;;7.00;6.00;;;;;17.62;100.00;97679.16;4936998;28;102247;-72
2023/07/01 06:48:10;;;;;;;;;5.67;5.33;;;;;17.72;100.00;97684.66;4939315;28;101785;-72
2023/07/01 06:50:38;;;;;;;;;4.00;4.00;;;;;17.77;100.00;97690.16;4939600;28;106530;-71
2023/07/01 06:53:05;;;;;;;;;3.33;3.33;;;;;17.82;100.00;97693.72;4938687;28;108628;-72
2023/07/01 06:55:33;;;;;;;;;3.67;3.67;;;;;17.85;100.00;97692.34;4938602;28;102158;-71
2023/07/01 06:58:03;;;;;;;;;6.00;6.00;;;;;17.53;100.00;97646.03;4936620;28;102915;-72
2023/07/01 07:00:30;;;;;;;;;6.33;6.00;;;;;17.65;100.00;97651.28;4928038;28;103124;-71
2023/07/01 07:02:57;;;;;;;;;4.33;4.33;;;;;17.94;100.00;97693.47;4931397;28;104365;-72
2023/07/01 07:05:25;;;;;;;;;6.00;6.00;;;;;17.94;100.00;97687.16;4933993;28;102031;-72
2023/07/01 07:07:52;;;;;;;;;5.00;4.33;;;;;17.96;100.00;97685.81;4934627;28;102367;-72
2023/07/01 07:10:19;;;;;;;;;4.33;4.33;;;;;17.94;100.00;97677.06;4939109;28;102270;-72
2023/07/01 07:12:46;;;;;;;;;2.67;2.67;;;;;18.02;100.00;97694.84;4937112;28;104316;-72
2023/07/01 07:15:13;;;;;;;;;4.00;3.33;;;;;17.98;100.00;97691.00;4939594;28;102019;-73
2023/07/01 07:17:40;;;;;;;;;5.00;4.33;;;;;18.04;100.00;97698.13;4940893;28;102292;-72
2023/07/01 07:20:08;;;;;;;;;6.67;6.67;;;;;18.04;100.00;97698.97;4938833;28;102109;-72
2023/07/01 07:22:35;;;;;;;;;4.00;4.00;;;;;18.01;100.00;97683.06;4937063;28;104586;-72
2023/07/01 07:25:03;;;;;;;;;4.00;3.00;;;;;18.02;100.00;97686.63;4937959;28;104118;-72
2023/07/01 07:27:30;;;;;;;;;3.00;3.00;;;;;18.06;100.00;97679.53;4935081;28;102301;-72
2023/07/01 07:29:56;;;;;;;;;3.67;3.67;;;;;18.09;100.00;97681.72;4934893;28;102464;-72
2023/07/01 07:32:24;;;;;;;;;4.00;3.67;;;;;18.13;100.00;97680.09;4938528;28;104167;-72
2023/07/01 07:34:51;;;;;;;;;5.00;5.00;;;;;18.18;100.00;97671.91;4938560;28;102076;-72
2023/07/01 07:37:18;;;;;;;;;5.33;4.33;;;;;18.27;100.00;97681.22;4935891;28;102039;-72
2023/07/01 07:39:45;;;;;;;;;4.00;4.00;;;;;18.28;100.00;97682.84;4937659;28;102011;-73
2023/07/01 07:42:12;;;;;;;;;4.00;3.00;;;;;18.36;100.00;97679.56;4936085;28;104067;-73
2023/07/01 07:44:41;;;;;;;;;4.33;4.00;;;;;18.41;100.00;97682.31;4939048;28;101849;-73
2023/07/01 07:47:08;;;;;;;;;7.00;6.33;;;;;18.44;100.00;97679.00;4937459;28;102370;-73
2023/07/01 07:49:35;;;;;;;;;10.00;9.00;;;;;18.46;100.00;97676.81;4939316;28;102118;-73
2023/07/01 07:52:04;;;;;;;;;7.67;7.33;;;;;18.43;100.00;97669.16;4934456;28;104234;-72
2023/07/01 07:54:31;;;;;;;;;6.33;6.33;;;;;18.54;100.00;97676.31;4937969;28;101786;-73
2023/07/01 07:56:59;;;;;;;;;8.67;8.67;;;;;18.57;100.00;97663.97;4936868;28;102089;-73
2023/07/01 07:59:27;;;;;;;;;7.33;7.00;;;;;18.58;100.00;97660.97;4936385;28;102043;-73
2023/07/01 08:01:57;;;;;;;;;7.00;7.00;;;;;18.59;100.00;97662.63;4934552;28;103993;-72
2023/07/01 08:04:25;;;;;;;;;10.67;10.67;;;;;18.62;100.00;97659.31;4937434;28;101969;-73
2023/07/01 08:06:55;;;;;;;;;7.00;7.00;;;;;18.55;100.00;97633.34;4937285;28;102433;-73
2023/07/01 08:09:22;;;;;;;;;9.33;8.67;;;;;18.71;100.00;97660.41;4937861;28;102291;-72
2023/07/01 08:11:49;;;;;;;;;9.67;9.67;;;;;18.71;100.00;97654.09;4937561;28;104019;-72
2023/07/01 08:14:18;;;;;;;;;8.00;7.33;;;;;18.79;100.00;97658.19;4936768;28;102176;-72
2023/07/01 08:16:45;;;;;;;;;10.33;8.67;;;;;18.61;100.00;97616.59;4936468;28;102264;-73
2023/07/01 08:19:12;;;;;;;;;8.00;8.00;;;;;18.93;100.00;97665.56;4939921;28;104263;-72
2023/07/01 08:21:39;;;;;;;;;7.67;7.33;;;;;18.97;100.00;97663.09;4936713;28;108853;-73
2023/07/01 08:24:09;;;;;;;;;6.00;6.00;;;;;18.95;100.00;97660.66;4938612;28;101745;-72
2023/07/01 08:26:36;;;;;;;;;8.00;7.67;;;;;18.93;100.00;97672.97;4926568;28;104805;-72
2023/07/01 08:29:08;;;;;;;;;6.00;6.00;;;;;18.92;100.00;97660.34;4938244;28;102190;-72
2023/07/01 08:31:36;;;;;;;;;7.33;6.67;;;;;18.79;100.00;97642.59;4935968;28;104292;-72
2023/07/01 08:34:04;;;;;;;;;6.00;6.00;;;;;18.90;100.00;97665.31;4936435;28;102284;-73
2023/07/01 08:36:31;;;;;;;;;6.67;6.00;;;;;18.89;100.00;97663.66;4934986;28;102258;-72
2023/07/01 08:38:58;;;;;;;;;5.00;5.00;;;;;18.88;100.00;97665.56;4938263;28;102007;-72
2023/07/01 08:41:25;;;;;;;;;5.00;5.00;;;;;18.87;100.00;97666.66;4937265;28;103164;-73
2023/07/01 08:43:53;;;;;;;;;3.00;3.00;;;;;18.87;100.00;97671.31;4935932;28;102300;-72
2023/07/01 08:46:22;;;;;;;;;5.00;5.00;;;;;18.87;100.00;97668.59;4937201;28;101978;-72
2023/07/01 08:48:50;;;;;;;;;6.67;6.33;;;;;18.84;100.00;97666.41;4938687;28;102329;-72
2023/07/01 08:51:31;;;;;;;;;5.00;5.00;;;;;18.85;100.00;97652.44;4935630;28;104103;-72
2023/07/01 08:54:00;;;;;;;;;4.00;4.00;;;;;18.87;100.00;97657.63;4934888;28;102225;-73
2023/07/01 08:56:27;;;;;;;;;7.00;7.00;;;;;18.89;100.00;97658.19;4936551;28;102186;-72
2023/07/01 08:58:55;;;;;;;;;7.00;5.67;;;;;18.83;100.00;97646.41;4938516;28;102376;-72
2023/07/01 09:01:22;;;;;;;;;5.33;5.33;;;;;19.02;100.00;97660.34;4936595;28;104005;-72
2023/07/01 09:03:49;;;;;;;;;6.00;6.00;;;;;19.08;100.00;97660.06;4936322;28;102001;-72
2023/07/01 09:06:17;;;;;;;;;7.33;7.33;;;;;19.11;100.00;97658.66;4936683;28;101887;-72
2023/07/01 09:08:44;;;;;;;;;7.00;7.00;;;;;19.21;100.00;97639.47;4937796;28;102198;-72
2023/07/01 09:11:14;;;;;;;;;5.67;5.67;;;;;19.40;100.00;97647.88;4937788;28;108694;-72
2023/07/01 09:13:42;;;;;;;;;8.00;8.00;;;;;19.48;100.00;97639.94;4935156;28;101964;-72
2023/07/01 09:16:09;;;;;;;;;6.00;5.33;;;;;19.64;100.00;97648.06;4936740;28;103469;-72
2023/07/01 09:18:40;;;;;;;;;8.00;7.00;;;;;19.70;100.00;97633.22;4936827;28;102410;-73
2023/07/01 09:21:18;;;;;;;;;5.00;5.00;;;;;19.84;100.00;97645.22;4934978;28;104202;-73
2023/07/01 09:23:47;;;;;;;;;9.00;8.00;;;;;19.88;100.00;97646.28;4934059;28;101946;-73
2023/07/01 09:26:17;;;;;;;;;7.33;7.33;;;;;19.86;100.00;97646.56;4934334;28;101998;-71
2023/07/01 09:28:46;;;;;;;;;13.00;11.67;;;;;19.71;100.00;97651.31;4938259;28;103389;-72
2023/07/01 09:31:15;;;;;;;;;8.00;7.67;;;;;19.67;100.00;97639.28;4937766;28;108482;-72
2023/07/01 09:34:05;;;;;;;;;8.00;8.00;;;;;19.68;100.00;97632.69;4940512;28;101872;-72
2023/07/01 09:36:32;;;;;;;;;7.00;6.67;;;;;19.84;100.00;97642.47;4931541;28;102147;-72
2023/07/01 09:39:01;;;;;;;;;9.33;8.67;;;;;19.81;100.00;97649.31;4942374;28;102291;-73
2023/07/01 09:41:28;;;;;;;;;6.00;6.00;;;;;19.85;100.00;97646.84;4937486;28;104026;-73
2023/07/01 09:43:59;;;;;;;;;5.67;5.67;;;;;19.81;100.00;97652.06;4935724;28;102146;-73
2023/07/01 09:46:49;;;;;;;;;6.00;5.67;;;;;19.82;100.00;97644.66;4935812;28;101896;-73
2023/07/01 09:49:18;;;;;;;;;8.67;8.00;;;;;19.54;100.00;97605.09;4938614;28;102308;-71
2023/07/01 09:51:50;;;;;;;;;7.00;7.00;;;;;19.76;100.00;97629.34;4939674;28;104153;-72
2023/07/01 09:54:29;;;;;;;;;8.00;8.00;;;;;19.79;100.00;97639.75;4939576;28;102226;-72
2023/07/01 09:56:58;;;;;;;;;8.33;8.33;;;;;19.79;100.00;97645.25;4935270;28;102183;-72
2023/07/01 09:59:26;;;;;;;;;8.00;7.67;;;;;19.81;100.00;97634.81;4940601;28;102046;-72
2023/07/01 10:01:55;;;;;;;;;8.33;8.33;;;;;19.83;100.00;97632.59;4938597;28;104171;-72
2023/07/01 10:04:28;;;;;;;;;5.67;5.67;;;;;19.88;100.00;97640.78;4953809;28;102228;-72
2023/07/01 10:06:57;;;;;;;;;6.67;6.67;;;;;19.92;100.00;97636.38;4936242;28;102221;-72
2023/07/01 10:09:26;;;;;;;;;8.00;6.00;;;;;19.97;100.00;97623.44;4940658;28;102110;-72
2023/07/01 10:11:58;;;;;;;;;7.00;6.33;;;;;20.02;100.00;97622.59;4939280;28;104119;-72
2023/07/01 10:14:28;;;;;;;;;4.67;4.67;;;;;20.07;99.75;97616.25;4939990;28;102134;-72
2023/07/01 10:16:55;;;;;;;;;6.33;6.33;;;;;20.17;99.02;97621.66;4940011;28;102151;-72
2023/07/01 10:19:31;;;;;;;;;4.00;4.00;;;;;20.23;98.59;97629.56;4940443;28;102015;-72
2023/07/01 10:22:29;;;;;;;;;6.00;6.00;;;;;20.25;97.27;97624.63;4936024;28;104015;-72
2023/07/01 10:25:07;;;;;;;;;5.67;5.67;;;;;20.29;100.00;97628.41;4936207;28;102227;-72
2023/07/01 10:27:43;;;;;;;;;5.67;5.67;;;;;20.31;99.67;97628.97;4938792;28;102120;-72
2023/07/01 10:30:12;;;;;;;;;6.00;6.00;;;;;20.33;99.87;97623.19;4939142;28;102489;-72
2023/07/01 10:32:40;;;;;;;;;6.00;5.67;;;;;20.34;99.42;97614.69;4939321;28;108762;-72
2023/07/01 10:35:13;;;;;;;;;9.67;9.67;;;;;20.36;99.43;97620.69;4937464;28;102284;-71
2023/07/01 10:37:41;;;;;;;;;6.33;6.33;;;;;20.40;97.78;97615.44;4939477;28;102181;-73
2023/07/01 10:40:29;;;;;;;;;8.50;8.50;;;;;20.44;97.20;97614.56;4939592;28;102320;-71
2023/07/01 10:43:15;;;;;;;;;6.33;6.33;;;;;20.58;96.75;97600.19;4933766;28;108716;-73
2023/07/01 10:45:42;;;;;;;;;6.33;6.33;;;;;20.69;95.92;97597.03;4936976;28;103122;-73
2023/07/01 10:48:14;;;;;;;;;12.33;11.00;;;;;20.82;97.72;97606.53;4938226;28;102225;-72
2023/07/01 10:51:00;;;;;;;;;9.33;9.00;;;;;20.91;95.99;97607.53;4938940;28;102093;-72
2023/07/01 10:53:29;;;;;;;;;7.67;7.67;;;;;21.06;95.93;97601.03;4937616;28;108635;-73
2023/07/01 10:56:16;;;;;;;;;11.67;11.67;;;;;21.09;94.31;97605.94;4935351;28;102329;-72
2023/07/01 10:58:43;;;;;;;;;11.33;9.00;;;;;21.11;93.28;97598.22;4936132;28;102041;-70
2023/07/01 11:01:47;;;;;;;;;10.00;10.00;;;;;21.05;95.62;97594.72;4940523;28;102465;-72
2023/07/01 11:04:14;;;;;;;;;13.33;13.33;;;;;20.87;95.71;97589.97;4934870;28;108559;-72
2023/07/01 11:06:52;;;;;;;;;15.67;15.00;;;;;20.90;96.28;97595.69;4940867;28;102247;-73
2023/07/01 11:09:29;;;;;;;;;17.33;17.33;;;;;21.07;93.61;97594.44;4936720;28;102369;-73
2023/07/01 11:11:57;;;;;;;;;19.33;18.67;;;;;21.04;97.63;97586.75;4939027;28;101952;-73
2023/07/01 11:14:36;;;;;;;;;13.00;13.00;;;;;21.24;96.39;97583.81;4937754;28;103996;-71
2023/07/01 11:17:09;;;;;;;;;13.00;13.00;;;;;21.35;91.21;97582.53;4937692;28;102052;-71
2023/07/01 11:19:37;;;;;;;;;14.67;14.67;;;;;21.35;92.29;97583.38;4936544;28;102087;-70
2023/07/01 11:22:05;;;;;;;;;16.67;14.67;;;;;21.35;93.40;97582.53;4938662;28;101994;-71
2023/07/01 11:24:32;;;;;;;;;13.67;11.33;;;;;21.58;94.83;97575.34;4935405;28;104223;-71
2023/07/01 11:27:02;;;;;;;;;11.00;10.33;;;;;21.56;92.21;97537.16;4934848;28;102410;-70